Time;durP1;ratioP1;P1;durP2;ratioP2;P2;SDS_P1;SDS_P2;PMS_P1;PMS_P2;Temp;Humidity;BMP_temperature;BMP_pressure;BME280_temperature;BME280_humidity;BME280_pressure;Samples;Min_cycle;Max_cycle;Signal;HPM_P1;HPM_P2
2023/03/18 04:00:31;;;;;;;11.67;9.67;;;5.80;99.90;;;;;;5869324;23;20176;-77
2023/03/18 04:02:58;;;;;;;10.10;9.13;;;5.80;99.90;;;;;;4921571;29;20257;-76
2023/03/18 04:05:25;;;;;;;10.40;9.50;;;5.90;99.90;;;;;;4935771;29;20181;-75
2023/03/18 04:07:52;;;;;;;9.80;8.90;;;5.80;99.90;;;;;;4933551;29;20213;-77
2023/03/18 04:10:19;;;;;;;10.43;9.50;;;5.80;99.90;;;;;;4933190;29;20187;-77
2023/03/18 04:12:45;;;;;;;10.10;9.10;;;5.80;99.90;;;;;;4917059;29;20198;-77
2023/03/18 04:15:13;;;;;;;11.33;10.23;;;5.80;99.90;;;;;;4916021;29;20191;-75
2023/03/18 04:17:41;;;;;;;12.57;11.23;;;5.80;99.90;;;;;;4923909;29;20215;-77
2023/03/18 04:20:09;;;;;;;11.40;10.33;;;5.80;99.90;;;;;;4922088;29;20206;-77
2023/03/18 04:22:36;;;;;;;14.30;10.07;;;5.70;99.90;;;;;;4919153;29;20203;-75
2023/03/18 04:25:04;;;;;;;10.43;9.43;;;5.70;99.90;;;;;;4917316;29;20231;-76
2023/03/18 04:27:31;;;;;;;10.27;9.33;;;5.70;99.90;;;;;;4908535;29;20220;-76
2023/03/18 04:29:57;;;;;;;10.73;9.53;;;5.60;99.90;;;;;;4897354;29;20184;-76
2023/03/18 04:32:23;;;;;;;9.77;9.07;;;5.60;99.90;;;;;;4896728;29;20219;-76
2023/03/18 04:34:49;;;;;;;10.17;9.47;;;5.50;99.90;;;;;;4896992;29;20182;-77
2023/03/18 04:37:18;;;;;;;10.50;9.60;;;5.50;99.90;;;;;;4900717;29;20213;-77
2023/03/18 04:39:46;;;;;;;8.67;7.90;;;5.50;99.90;;;;;;4916129;29;20235;-76
2023/03/18 04:42:13;;;;;;;12.40;8.70;;;5.40;99.90;;;;;;4916446;29;20705;-76
2023/03/18 04:44:39;;;;;;;9.83;8.90;;;5.40;99.90;;;;;;4914658;29;20271;-76
2023/03/18 04:47:06;;;;;;;10.03;9.33;;;5.30;99.90;;;;;;4911882;29;20672;-69
2023/03/18 04:49:33;;;;;;;10.03;9.13;;;5.30;99.90;;;;;;4896621;29;20183;-69
2023/03/18 04:51:59;;;;;;;10.43;9.43;;;5.30;99.90;;;;;;4895563;29;20688;-69
2023/03/18 04:54:26;;;;;;;10.33;9.53;;;5.20;99.90;;;;;;4910691;29;20184;-69
2023/03/18 04:56:53;;;;;;;9.90;8.87;;;5.20;99.90;;;;;;4896586;29;20184;-69
2023/03/18 04:59:19;;;;;;;9.43;8.83;;;5.20;99.90;;;;;;4911450;29;20183;-69
2023/03/18 05:01:45;;;;;;;9.47;8.77;;;5.20;99.90;;;;;;4915697;29;20222;-69
2023/03/18 05:04:11;;;;;;;10.90;10.00;;;5.20;99.90;;;;;;4915393;29;20179;-69
2023/03/18 05:06:37;;;;;;;9.97;8.77;;;5.10;99.90;;;;;;4914480;29;20187;-70
2023/03/18 05:09:04;;;;;;;9.93;9.03;;;5.00;99.90;;;;;;4915315;29;20235;-69
2023/03/18 05:11:30;;;;;;;10.63;9.63;;;5.00;99.90;;;;;;4915115;29;20570;-69
2023/03/18 05:13:56;;;;;;;9.43;8.73;;;5.00;99.90;;;;;;4915231;29;20739;-69
2023/03/18 05:16:24;;;;;;;10.00;9.20;;;4.90;99.90;;;;;;4915027;29;20188;-69
2023/03/18 05:18:51;;;;;;;9.43;8.67;;;4.90;99.90;;;;;;4915064;29;20215;-70
2023/03/18 05:21:16;;;;;;;8.83;8.23;;;4.80;99.90;;;;;;4915003;29;20202;-69
2023/03/18 05:23:43;;;;;;;10.70;9.97;;;4.80;99.90;;;;;;4915145;29;20190;-69
2023/03/18 05:26:11;;;;;;;10.57;9.07;;;4.70;99.90;;;;;;4898318;29;20271;-69
2023/03/18 05:28:38;;;;;;;10.50;9.53;;;4.70;99.90;;;;;;4895698;29;20284;-69
2023/03/18 05:31:05;;;;;;;9.00;8.20;;;4.70;99.90;;;;;;4894977;29;20214;-69
2023/03/18 05:33:32;;;;;;;13.13;9.60;;;4.60;99.90;;;;;;4896045;29;20184;-70
2023/03/18 05:35:58;;;;;;;10.80;10.03;;;4.60;99.90;;;;;;4909342;29;20730;-70
2023/03/18 05:38:24;;;;;;;12.53;11.33;;;4.70;99.90;;;;;;4913983;29;20218;-71
2023/03/18 05:40:51;;;;;;;8.70;8.00;;;4.60;99.90;;;;;;4915649;29;20290;-71
2023/03/18 05:43:16;;;;;;;10.37;8.40;;;4.60;99.90;;;;;;4917480;29;20554;-71
2023/03/18 05:45:42;;;;;;;9.43;8.67;;;4.50;99.90;;;;;;4905435;29;20210;-71
2023/03/18 05:48:09;;;;;;;8.93;8.03;;;4.50;99.90;;;;;;4900219;29;20308;-71
2023/03/18 05:50:41;;;;;;;8.77;7.93;;;4.60;99.90;;;;;;4896694;29;20577;-70
2023/03/18 05:53:08;;;;;;;9.47;8.67;;;4.60;99.90;;;;;;4895955;29;20227;-70
2023/03/18 05:55:34;;;;;;;9.60;8.70;;;4.50;99.90;;;;;;4907105;29;20210;-70
2023/03/18 05:58:01;;;;;;;12.30;8.50;;;4.50;99.90;;;;;;4913694;29;20587;-71
2023/03/18 06:00:29;;;;;;;8.93;8.27;;;4.50;99.90;;;;;;4913277;29;20243;-70
2023/03/18 06:03:00;;;;;;;8.93;8.23;;;4.50;99.90;;;;;;4914515;29;20182;-70
2023/03/18 06:05:27;;;;;;;11.13;10.13;;;4.60;99.90;;;;;;4904394;29;20263;-70
2023/03/18 06:07:54;;;;;;;11.20;10.40;;;4.60;99.90;;;;;;4895818;29;20183;-70
2023/03/18 06:10:21;;;;;;;12.10;11.37;;;4.60;99.90;;;;;;4895417;29;20188;-70
2023/03/18 06:12:48;;;;;;;10.30;9.40;;;4.60;99.90;;;;;;4894297;29;20192;-70
2023/03/18 06:15:15;;;;;;;9.17;8.23;;;4.70;99.90;;;;;;4895589;29;20188;-70
2023/03/18 06:17:40;;;;;;;9.37;8.47;;;4.80;99.90;;;;;;4895731;29;20211;-71
2023/03/18 06:20:08;;;;;;;10.67;9.17;;;4.80;99.90;;;;;;4913390;29;20187;-70
2023/03/18 06:22:35;;;;;;;10.10;9.40;;;4.80;99.90;;;;;;4914713;29;20821;-70
2023/03/18 06:25:03;;;;;;;11.50;9.97;;;4.80;99.90;;;;;;4912868;29;20282;-71
2023/03/18 06:27:30;;;;;;;11.70;10.70;;;4.80;99.90;;;;;;4913427;29;20183;-70
2023/03/18 06:29:56;;;;;;;12.20;10.60;;;4.80;99.90;;;;;;4914445;29;20183;-70
2023/03/18 06:32:22;;;;;;;15.47;9.43;;;4.90;99.90;;;;;;4916655;29;20213;-70
2023/03/18 06:34:48;;;;;;;12.57;11.53;;;4.90;99.90;;;;;;4912546;29;20248;-71
2023/03/18 06:37:15;;;;;;;19.47;17.10;;;5.00;99.90;;;;;;4896414;29;20208;-71
2023/03/18 06:39:41;;;;;;;13.50;12.30;;;5.00;99.90;;;;;;4895401;29;20279;-70
2023/03/18 06:42:06;;;;;;;11.23;10.43;;;5.10;99.90;;;;;;4895965;29;20207;-69
2023/03/18 06:44:33;;;;;;;9.57;8.87;;;5.20;99.90;;;;;;4897163;29;20184;-69
2023/03/18 06:46:59;;;;;;;8.70;7.90;;;5.20;99.90;;;;;;4914429;29;20191;-69
2023/03/18 06:49:24;;;;;;;7.80;7.13;;;5.40;99.90;;;;;;4914051;29;20194;-69
2023/03/18 06:51:50;;;;;;;11.93;9.10;;;5.60;99.90;;;;;;4914544;29;20203;-69
2023/03/18 06:54:17;;;;;;;16.73;14.93;;;5.80;99.90;;;;;;4914519;29;20179;-69
2023/03/18 06:56:45;;;;;;;26.50;20.83;;;6.00;99.90;;;;;;4898418;29;20659;-69
2023/03/18 06:59:11;;;;;;;38.20;30.50;;;6.40;99.90;;;;;;4913420;29;20671;-69
2023/03/18 07:01:37;;;;;;;37.97;34.13;;;6.80;99.90;;;;;;4914129;29;20250;-71
2023/03/18 07:04:05;;;;;;;14.70;13.47;;;7.10;99.90;;;;;;4914069;29;20194;-71
2023/03/18 07:06:31;;;;;;;29.37;27.33;;;7.40;99.90;;;;;;4897109;29;20232;-71
2023/03/18 07:08:58;;;;;;;41.93;39.57;;;7.90;99.90;;;;;;4908022;29;20288;-68
2023/03/18 07:11:24;;;;;;;13.63;12.33;;;8.40;99.90;;;;;;4935063;29;20199;-67
2023/03/18 07:13:51;;;;;;;22.90;21.60;;;9.30;99.90;;;;;;4935283;29;20217;-66
2023/03/18 07:16:18;;;;;;;13.83;12.67;;;10.10;99.90;;;;;;4920075;29;20312;-70
2023/03/18 07:18:44;;;;;;;18.03;16.83;;;10.50;99.90;;;;;;4914564;29;20761;-70
2023/03/18 07:21:10;;;;;;;16.70;15.60;;;10.50;99.90;;;;;;4914788;29;20222;-70
2023/03/18 07:23:36;;;;;;;14.17;13.07;;;10.40;99.90;;;;;;4914652;29;20190;-71
2023/03/18 07:26:02;;;;;;;12.33;11.43;;;10.50;99.90;;;;;;4902896;29;20218;-70
2023/03/18 07:28:28;;;;;;;10.70;7.63;;;10.90;99.90;;;;;;4895485;29;20184;-70
2023/03/18 07:30:54;;;;;;;12.47;8.80;;;11.50;99.90;;;;;;4896919;29;20223;-70
2023/03/18 07:33:20;;;;;;;25.70;24.07;;;12.10;99.90;;;;;;4897326;29;20192;-70
2023/03/18 07:35:47;;;;;;;26.50;24.87;;;12.70;99.90;;;;;;4908462;29;20197;-70
2023/03/18 07:38:13;;;;;;;22.43;20.63;;;13.30;99.90;;;;;;4917316;29;20219;-71
2023/03/18 07:40:40;;;;;;;15.33;14.33;;;13.40;99.90;;;;;;4917124;29;20234;-70
2023/03/18 07:43:05;;;;;;;9.50;8.70;;;13.50;99.90;;;;;;4917429;29;20231;-71
2023/03/18 07:45:32;;;;;;;8.27;7.63;;;13.40;99.90;;;;;;4915705;29;20187;-70
2023/03/18 07:47:58;;;;;;;7.67;7.13;;;12.80;99.90;;;;;;4918128;29;20190;-70
2023/03/18 07:50:23;;;;;;;11.80;10.80;;;12.50;99.90;;;;;;4916938;29;20195;-69
2023/03/18 07:52:49;;;;;;;22.37;20.60;;;12.30;99.90;;;;;;4917434;29;20673;-70
2023/03/18 07:55:15;;;;;;;32.60;30.50;;;12.20;99.90;;;;;;4911032;29;20191;-69
2023/03/18 07:57:41;;;;;;;25.00;23.13;;;12.30;99.90;;;;;;4906213;29;20210;-69
2023/03/18 08:00:09;;;;;;;12.03;11.13;;;12.60;99.90;;;;;;4915802;29;20191;-70
2023/03/18 08:02:35;;;;;;;10.47;9.63;;;12.80;99.90;;;;;;4899553;29;20216;-69
2023/03/18 08:05:02;;;;;;;10.00;9.00;;;12.90;99.90;;;;;;4901271;29;20605;-69
2023/03/18 08:07:28;;;;;;;8.67;7.23;;;13.20;99.90;;;;;;4916908;29;20241;-69
2023/03/18 08:09:54;;;;;;;7.00;6.30;;;13.50;99.90;;;;;;4916509;29;20279;-69
2023/03/18 08:12:20;;;;;;;7.53;6.83;;;13.80;99.90;;;;;;4910653;29;20688;-68
2023/03/18 08:14:47;;;;;;;9.53;6.70;;;13.80;99.90;;;;;;4908397;29;20187;-69
2023/03/18 08:17:13;;;;;;;8.17;7.50;;;14.00;99.90;;;;;;4916179;29;20222;-69
2023/03/18 08:19:39;;;;;;;10.50;7.67;;;13.90;99.90;;;;;;4914737;29;20183;-69
2023/03/18 08:22:05;;;;;;;9.80;6.67;;;14.40;99.90;;;;;;4916138;29;20359;-68
2023/03/18 08:24:31;;;;;;;7.60;6.87;;;14.80;99.90;;;;;;4914344;29;20715;-67
2023/03/18 08:26:57;;;;;;;10.27;8.23;;;15.00;99.90;;;;;;4913881;29;20187;-67
2023/03/18 08:29:23;;;;;;;10.33;9.43;;;15.50;99.90;;;;;;4914997;29;20175;-67
2023/03/18 08:31:50;;;;;;;10.00;9.03;;;15.60;99.90;;;;;;4916374;29;20207;-67
2023/03/18 08:34:15;;;;;;;11.20;10.30;;;15.50;99.90;;;;;;4916252;29;20658;-67
2023/03/18 08:36:41;;;;;;;11.20;10.27;;;15.30;99.90;;;;;;4908957;29;20180;-70
2023/03/18 08:39:08;;;;;;;10.33;9.33;;;15.10;99.90;;;;;;4894908;29;20215;-71
2023/03/18 08:41:35;;;;;;;12.67;11.77;;;15.20;99.90;;;;;;4900897;29;20218;-72
2023/03/18 08:44:05;;;;;;;10.97;10.10;;;15.50;99.90;;;;;;4897932;29;20597;-65
2023/03/18 08:46:31;;;;;;;11.63;10.57;;;15.80;99.90;;;;;;4910376;29;20175;-65
2023/03/18 08:48:58;;;;;;;11.63;10.83;;;15.70;99.90;;;;;;4916410;29;20724;-65
2023/03/18 08:51:24;;;;;;;10.60;9.37;;;16.10;99.90;;;;;;4916506;29;20213;-65
2023/03/18 08:53:50;;;;;;;8.50;7.90;;;16.80;99.90;;;;;;4917735;29;20278;-67
2023/03/18 08:56:16;;;;;;;8.33;7.53;;;16.90;99.90;;;;;;4914975;29;20183;-67
2023/03/18 08:58:45;;;;;;;8.53;7.33;;;17.10;99.90;;;;;;4910162;29;20710;-67
2023/03/18 09:01:11;;;;;;;6.90;6.50;;;17.50;99.90;;;;;;4915041;29;20900;-67
2023/03/18 09:03:37;;;;;;;11.23;10.57;;;17.80;99.10;;;;;;4915723;29;20616;-68
2023/03/18 09:06:04;;;;;;;10.47;9.77;;;17.70;96.80;;;;;;4914680;29;20209;-66
2023/03/18 09:08:31;;;;;;;13.03;12.13;;;17.60;97.70;;;;;;4914903;29;20207;-66
2023/03/18 09:10:58;;;;;;;8.63;8.10;;;17.80;97.00;;;;;;4915632;29;20218;-66
2023/03/18 09:13:24;;;;;;;8.13;6.90;;;18.10;95.60;;;;;;4914388;29;20659;-66
2023/03/18 09:15:50;;;;;;;6.43;5.93;;;18.20;94.80;;;;;;4910248;29;20188;-69
2023/03/18 09:18:17;;;;;;;4.83;4.30;;;18.30;94.40;;;;;;4895262;29;20219;-67
2023/03/18 09:20:44;;;;;;;5.57;5.07;;;18.40;92.80;;;;;;4896234;29;20271;-67
2023/03/18 09:23:11;;;;;;;6.53;6.03;;;18.70;92.40;;;;;;4896904;29;20180;-69
2023/03/18 09:25:39;;;;;;;5.53;5.03;;;19.10;90.70;;;;;;4896868;29;20561;-66
2023/03/18 09:28:05;;;;;;;4.60;4.30;;;19.40;90.60;;;;;;4915341;29;20191;-68
2023/03/18 09:30:31;;;;;;;5.13;4.70;;;19.80;86.40;;;;;;4915162;29;20187;-67
2023/03/18 09:32:57;;;;;;;4.73;4.50;;;19.90;84.50;;;;;;4914989;29;20632;-67
2023/03/18 09:35:24;;;;;;;5.17;4.87;;;20.00;83.80;;;;;;4914226;29;20210;-67
2023/03/18 09:37:49;;;;;;;6.53;5.32;;;20.50;80.50;;;;;;4914839;29;20238;-69
2023/03/18 09:40:27;;;;;;;7.28;6.85;;;21.00;78.60;;;;;;4913595;29;20186;-68
2023/03/18 09:43:23;;;;;;;11.60;10.75;;;21.30;76.00;;;;;;4915316;29;20187;-67
2023/03/18 09:46:25;;;;;;;15.27;14.23;;;21.70;77.50;;;;;;4913776;29;20211;-67
2023/03/18 09:48:58;;;;;;;9.90;8.13;;;22.00;78.00;;;;;;4896092;29;20190;-67
2023/03/18 09:51:37;;;;;;;7.30;5.55;;;22.50;73.10;;;;;;4896104;29;20585;-66
2023/03/18 09:54:32;;;;;;;9.98;9.40;;;22.80;79.90;;;;;;4896217;29;20187;-66
2023/03/18 09:56:58;;;;;;;30.63;28.98;;;23.40;67.40;;;;;;4889356;29;20188;-66
2023/03/18 09:59:28;;;;;;;26.15;24.80;;;23.50;64.40;;;;;;4897455;29;20289;-73
2023/03/18 10:01:56;;;;;;;8.93;8.27;;;23.50;66.40;;;;;;4895378;29;20223;-70
2023/03/18 10:04:40;;;;;;;5.28;4.82;;;23.60;58.10;;;;;;4894830;29;20183;-70
2023/03/18 10:07:13;;;;;;;5.78;5.38;;;23.10;63.80;;;;;;4894870;29;20270;-71
2023/03/18 10:09:44;;;;;;;4.28;3.97;;;23.00;64.10;;;;;;4917576;29;20236;-72
2023/03/18 10:12:20;;;;;;;4.82;4.53;;;22.30;62.20;;;;;;4932680;29;20207;-71
2023/03/18 10:14:57;;;;;;;3.90;3.50;;;21.70;64.10;;;;;;4931948;29;20190;-70
2023/03/18 10:17:29;;;;;;;5.03;4.57;;;21.70;63.80;;;;;;4930848;29;20745;-69
2023/03/18 10:19:58;;;;;;;5.20;4.38;;;21.60;66.20;;;;;;4912337;29;20191;-69
2023/03/18 10:22:43;;;;;;;5.03;4.65;;;22.20;63.50;;;;;;4914394;29;20206;-70
2023/03/18 10:25:16;;;;;;;6.47;5.90;;;22.90;61.30;;;;;;4909410;29;20227;-69
2023/03/18 10:28:04;;;;;;;5.82;5.43;;;23.60;62.70;;;;;;4909490;29;20279;-70
2023/03/18 10:30:46;;;;;;;4.00;3.78;;;24.10;63.80;;;;;;4915500;29;20187;-70
2023/03/18 10:33:30;;;;;;;4.20;3.90;;;24.40;57.30;;;;;;4918098;29;20614;-69
2023/03/18 10:36:35;;;;;;;5.00;4.03;;;24.70;53.30;;;;;;4915421;29;20195;-69
2023/03/18 10:39:02;;;;;;;3.92;3.65;;;24.90;52.20;;;;;;4901711;29;20245;-70
2023/03/18 10:41:35;;;;;;;3.83;3.47;;;24.70;54.90;;;;;;4895956;29;20232;-69
2023/03/18 10:44:16;;;;;;;7.03;4.25;;;24.70;56.20;;;;;;4898021;29;20602;-69
2023/03/18 10:46:43;;;;;;;7.07;3.38;;;24.90;56.50;;;;;;4899745;29;20194;-69
2023/03/18 10:49:18;;;;;;;5.65;4.45;;;25.20;53.30;;;;;;4912475;29;20187;-69
2023/03/18 10:51:53;;;;;;;5.40;5.00;;;24.90;51.50;;;;;;4918514;29;20211;-70
2023/03/18 10:54:31;;;;;;;8.32;7.78;;;25.20;52.70;;;;;;4918646;29;20620;-70
2023/03/18 10:56:57;;;;;;;12.10;11.45;;;25.50;51.60;;;;;;4917238;29;20187;-71
2023/03/18 10:59:25;;;;;;;17.83;16.63;;;25.60;48.70;;;;;;4902684;29;20187;-71
2023/03/18 11:01:57;;;;;;;13.55;12.90;;;25.10;48.60;;;;;;4911199;29;20211;-71
2023/03/18 11:04:23;;;;;;;12.85;12.15;;;25.00;48.70;;;;;;4917984;29;20179;-72
2023/03/18 11:06:56;;;;;;;14.75;13.88;;;24.60;49.00;;;;;;4917048;29;20179;-71
2023/03/18 11:09:30;;;;;;;9.07;8.50;;;24.40;49.30;;;;;;4902956;29;20637;-71
2023/03/18 11:12:04;;;;;;;12.60;11.63;;;24.00;49.70;;;;;;4898047;29;20242;-70
2023/03/18 11:14:31;;;;;;;7.38;6.78;;;23.50;49.10;;;;;;4899273;29;20195;-71
2023/03/18 11:17:17;;;;;;;6.03;5.63;;;23.40;50.20;;;;;;4897864;29;20566;-71
2023/03/18 11:19:49;;;;;;;3.60;3.40;;;23.40;51.40;;;;;;4914691;29;20187;-71
2023/03/18 11:22:19;;;;;;;9.20;8.43;;;23.70;53.40;;;;;;4917967;29;20845;-71
2023/03/18 11:24:58;;;;;;;9.73;9.20;;;24.30;47.10;;;;;;4916784;29;20215;-71
2023/03/18 11:27:27;;;;;;;9.30;8.63;;;24.50;46.90;;;;;;4917869;29;20283;-70
2023/03/18 11:29:59;;;;;;;18.65;17.52;;;24.00;47.10;;;;;;4898966;29;20195;-69
2023/03/18 11:32:27;;;;;;;13.98;13.18;;;24.10;44.10;;;;;;4897734;29;20680;-70
2023/03/18 11:34:59;;;;;;;15.38;14.57;;;24.30;43.20;;;;;;4898858;29;20190;-70
2023/03/18 11:37:28;;;;;;;14.48;13.77;;;24.20;46.60;;;;;;4897658;29;20211;-70
2023/03/18 11:40:17;;;;;;;14.77;13.93;;;24.00;44.50;;;;;;4916618;29;20235;-70
2023/03/18 11:42:44;;;;;;;14.90;14.10;;;24.40;46.10;;;;;;4917626;29;20183;-70
2023/03/18 11:45:25;;;;;;;13.48;12.75;;;25.00;45.30;;;;;;4917535;29;20622;-70
2023/03/18 11:47:52;;;;;;;13.10;12.30;;;25.20;44.60;;;;;;4915128;29;20282;-70
2023/03/18 11:50:29;;;;;;;13.98;13.18;;;24.30;45.80;;;;;;4898091;29;20188;-70
2023/03/18 11:53:15;;;;;;;12.93;12.13;;;24.00;46.80;;;;;;4898593;29;20195;-71
2023/03/18 11:56:14;;;;;;;13.05;12.35;;;23.80;45.80;;;;;;4898302;29;20187;-70
2023/03/18 11:58:46;;;;;;;13.85;13.05;;;24.60;46.90;;;;;;4906125;29;20357;-69
2023/03/18 12:01:22;;;;;;;15.00;14.27;;;24.50;45.80;;;;;;4916801;29;20210;-70
2023/03/18 12:04:14;;;;;;;13.05;12.45;;;24.90;44.80;;;;;;4916143;29;20189;-70
2023/03/18 12:07:08;;;;;;;17.73;16.83;;;25.20;43.50;;;;;;4910054;29;20199;-70
2023/03/18 12:09:40;;;;;;;12.32;10.77;;;25.00;43.70;;;;;;4900186;29;20593;-71
2023/03/18 12:12:41;;;;;;;14.32;13.55;;;25.00;46.40;;;;;;4898144;29;20252;-71
2023/03/18 12:15:28;;;;;;;14.80;13.88;;;25.60;44.70;;;;;;4883500;29;20222;-71
2023/03/18 12:18:05;;;;;;;11.48;10.82;;;25.70;43.40;;;;;;4899909;29;20702;-71
2023/03/18 12:20:39;;;;;;;22.75;21.58;;;26.70;42.80;;;;;;4916454;29;20271;-71
2023/03/18 12:23:23;;;;;;;27.45;26.08;;;27.60;39.90;;;;;;4916942;29;20278;-70
2023/03/18 12:26:12;;;;;;;31.35;29.85;;;27.40;40.50;;;;;;4915593;29;20652;-71
2023/03/18 12:29:06;;;;;;;29.30;27.77;;;26.30;40.70;;;;;;4908459;29;20196;-71
2023/03/18 12:32:03;;;;;;;22.23;21.08;;;26.00;40.90;;;;;;4897676;29;20258;-71
2023/03/18 12:35:16;;;;;;;31.85;29.95;;;26.10;43.90;;;;;;4897742;29;20238;-71
2023/03/18 12:38:12;;;;;;;31.90;30.40;;;26.50;41.50;;;;;;4898112;29;20219;-70
2023/03/18 12:40:38;;;;;;;27.75;26.27;;;27.80;39.20;;;;;;4916031;29;20239;-71
2023/03/18 12:43:16;;;;;;;17.65;16.73;;;28.60;39.30;;;;;;4915341;29;20233;-71
2023/03/18 12:45:46;;;;;;;19.20;18.35;;;28.60;38.30;;;;;;4916323;29;20198;-71
2023/03/18 12:48:16;;;;;;;18.50;17.55;;;28.10;39.40;;;;;;4912268;29;20194;-71
2023/03/18 12:50:48;;;;;;;17.23;15.85;;;27.90;37.40;;;;;;4897170;29;20203;-71
2023/03/18 12:53:24;;;;;;;11.15;10.65;;;28.20;37.10;;;;;;4897453;29;20302;-72
2023/03/18 12:55:56;;;;;;;45.00;41.42;;;28.50;35.20;;;;;;4896240;29;20187;-71
2023/03/18 12:58:30;;;;;;;16.17;15.15;;;28.50;37.70;;;;;;4900380;29;20210;-72
2023/03/18 13:01:05;;;;;;;16.23;15.43;;;28.20;38.40;;;;;;4914233;29;20643;-72
2023/03/18 13:03:55;;;;;;;13.93;13.32;;;27.00;39.40;;;;;;4914995;29;20186;-73
2023/03/18 13:06:36;;;;;;;14.85;13.95;;;26.70;40.00;;;;;;4916412;29;20183;-71
2023/03/18 13:09:24;;;;;;;17.10;15.95;;;27.40;38.20;;;;;;4907555;29;20187;-70
2023/03/18 13:12:13;;;;;;;13.95;13.00;;;28.60;37.80;;;;;;4898375;29;20336;-70
2023/03/18 13:15:06;;;;;;;14.88;13.90;;;28.30;38.90;;;;;;4897795;29;20190;-72
2023/03/18 13:17:37;;;;;;;16.27;15.38;;;29.00;38.10;;;;;;4897024;29;20219;-72
2023/03/18 13:20:20;;;;;;;12.32;11.43;;;30.10;37.00;;;;;;4914143;29;20190;-72
2023/03/18 13:22:55;;;;;;;15.10;14.20;;;30.10;35.90;;;;;;4915921;29;20651;-71
2023/03/18 13:25:45;;;;;;;12.07;11.45;;;29.00;38.10;;;;;;4916467;29;20185;-71
2023/03/18 13:28:39;;;;;;;13.10;12.50;;;29.10;36.40;;;;;;4911546;29;20188;-71
2023/03/18 13:31:30;;;;;;;19.10;18.10;;;28.30;37.80;;;;;;4896700;29;20301;-71
2023/03/18 13:34:55;;;;;;;16.60;15.60;;;28.00;38.20;;;;;;4891425;29;20248;-71
2023/03/18 13:37:41;;;;;;;20.48;19.45;;;27.30;39.20;;;;;;4857153;29;20223;-70
2023/03/18 13:40:12;;;;;;;25.00;23.55;;;27.10;38.80;;;;;;4911338;29;20628;-71
2023/03/18 13:42:40;;;;;;;20.38;19.38;;;26.10;40.00;;;;;;4915300;29;20183;-71
2023/03/18 13:45:26;;;;;;;27.00;25.50;;;26.20;41.30;;;;;;4915494;29;20238;-71
2023/03/18 13:47:59;;;;;;;27.65;25.92;;;26.80;41.30;;;;;;4915294;29;20191;-70
2023/03/18 13:50:38;;;;;;;23.85;22.55;;;26.20;40.40;;;;;;4896311;29;20215;-70
2023/03/18 13:53:18;;;;;;;43.10;40.75;;;25.40;40.40;;;;;;4895164;29;20187;-71
2023/03/18 13:55:59;;;;;;;44.05;41.70;;;24.90;42.90;;;;;;4896248;29;20191;-71
2023/03/18 13:58:28;;;;;;;38.80;36.78;;;24.50;42.50;;;;;;4898298;29;20214;-71
2023/03/18 14:00:54;;;;;;;34.70;33.08;;;24.20;43.30;;;;;;4914854;29;20301;-70
2023/03/18 14:03:25;;;;;;;36.78;34.83;;;24.30;42.20;;;;;;4915078;29;20326;-71
2023/03/18 14:06:04;;;;;;;36.60;34.80;;;24.20;43.00;;;;;;4915073;29;20191;-71
2023/03/18 14:08:41;;;;;;;31.90;30.38;;;23.70;43.10;;;;;;4909933;29;20279;-71
2023/03/18 14:11:21;;;;;;;27.88;26.45;;;23.60;43.50;;;;;;4895892;29;20620;-71
2023/03/18 14:14:00;;;;;;;22.67;21.35;;;23.70;43.00;;;;;;4894944;29;20695;-71
2023/03/18 14:16:34;;;;;;;21.65;20.60;;;23.60;45.00;;;;;;4896061;29;20270;-71
2023/03/18 14:19:13;;;;;;;24.90;23.67;;;23.50;44.90;;;;;;4902564;29;20210;-71
2023/03/18 14:21:48;;;;;;;18.73;17.83;;;23.60;43.20;;;;;;4914810;29;20556;-71
2023/03/18 14:24:16;;;;;;;25.63;24.33;;;23.80;45.30;;;;;;4914830;29;20822;-71
2023/03/18 14:26:57;;;;;;;25.23;23.80;;;23.90;43.50;;;;;;4914936;29;20191;-71
2023/03/18 14:29:29;;;;;;;16.15;15.27;;;23.30;43.90;;;;;;4903447;29;20235;-71
2023/03/18 14:31:57;;;;;;;18.60;17.52;;;22.90;45.10;;;;;;4894554;29;20204;-70
2023/03/18 14:34:28;;;;;;;19.30;18.00;;;22.50;45.80;;;;;;4899174;29;20184;-70
2023/03/18 14:36:56;;;;;;;13.63;12.65;;;22.20;45.50;;;;;;4894618;29;20622;-70
2023/03/18 14:39:26;;;;;;;17.25;16.25;;;22.20;45.90;;;;;;4908584;29;20214;-69
2023/03/18 14:41:55;;;;;;;14.13;13.27;;;22.00;44.80;;;;;;4914492;29;20639;-65
2023/03/18 14:44:30;;;;;;;12.93;12.13;;;21.80;47.00;;;;;;4912783;29;20179;-66
2023/03/18 14:46:59;;;;;;;11.93;9.95;;;21.60;47.00;;;;;;4913797;29;20183;-66
2023/03/18 14:49:34;;;;;;;11.30;10.40;;;21.40;47.40;;;;;;4903074;29;20548;-65
2023/03/18 14:52:03;;;;;;;13.35;12.23;;;21.20;47.90;;;;;;4912810;29;20262;-66
2023/03/18 14:54:32;;;;;;;8.48;7.63;;;21.00;47.10;;;;;;4913668;29;20184;-65
2023/03/18 14:57:03;;;;;;;6.75;6.38;;;21.00;49.50;;;;;;4913090;29;20268;-67
2023/03/18 14:59:28;;;;;;;7.13;6.72;;;21.10;47.00;;;;;;4913688;29;20221;-66
2023/03/18 15:01:54;;;;;;;5.97;5.68;;;21.20;47.20;;;;;;4913687;29;20227;-70
2023/03/18 15:04:23;;;;;;;7.88;7.40;;;21.10;48.70;;;;;;4912984;29;20699;-70
2023/03/18 15:06:51;;;;;;;5.15;4.85;;;21.00;46.30;;;;;;4908289;29;20182;-69
2023/03/18 15:09:27;;;;;;;6.50;6.10;;;20.90;47.90;;;;;;4894434;29;20668;-70
2023/03/18 15:11:55;;;;;;;5.20;4.93;;;20.80;47.70;;;;;;4898955;29;20675;-68
2023/03/18 15:14:25;;;;;;;7.07;6.75;;;20.80;47.60;;;;;;4931270;29;20186;-69
2023/03/18 15:16:56;;;;;;;6.15;5.85;;;20.90;47.10;;;;;;4924095;29;20210;-69
2023/03/18 15:19:22;;;;;;;4.88;4.57;;;20.90;46.20;;;;;;4912428;29;20271;-68
2023/03/18 15:21:49;;;;;;;5.18;4.70;;;20.90;48.60;;;;;;4913475;29;20242;-69
2023/03/18 15:24:20;;;;;;;3.97;3.78;;;20.90;48.40;;;;;;4914203;29;20340;-69
2023/03/18 15:27:02;;;;;;;4.05;3.85;;;20.90;49.80;;;;;;4907562;29;20182;-68
2023/03/18 15:29:32;;;;;;;7.35;4.50;;;21.00;49.20;;;;;;4896033;29;20299;-68
2023/03/18 15:32:14;;;;;;;4.47;4.18;;;21.10;48.20;;;;;;4898428;29;20255;-68
2023/03/18 15:34:43;;;;;;;5.05;4.68;;;20.90;47.60;;;;;;4898516;29;20188;-68
2023/03/18 15:37:42;;;;;;;4.75;4.25;;;20.90;47.20;;;;;;4905445;29;20226;-69
2023/03/18 15:40:16;;;;;;;5.45;5.15;;;21.00;49.20;;;;;;4895607;29;20270;-70
2023/03/18 15:42:44;;;;;;;4.63;4.32;;;20.90;47.20;;;;;;4918190;29;20266;-69
2023/03/18 15:45:17;;;;;;;4.43;4.20;;;20.90;48.60;;;;;;4917313;29;20186;-68
2023/03/18 15:47:43;;;;;;;4.85;4.45;;;20.90;49.70;;;;;;4906864;29;20188;-70
2023/03/18 15:50:19;;;;;;;6.10;5.75;;;20.90;48.60;;;;;;4898704;29;20656;-72
2023/03/18 15:52:46;;;;;;;5.22;4.82;;;21.00;50.00;;;;;;4896982;29;20202;-68
2023/03/18 15:55:34;;;;;;;5.85;5.45;;;20.90;49.30;;;;;;4898273;29;20559;-70
2023/03/18 15:58:15;;;;;;;7.72;7.10;;;20.90;49.60;;;;;;4911428;29;20275;-69
2023/03/18 16:00:41;;;;;;;6.47;6.00;;;20.90;49.20;;;;;;4916773;29;20249;-70
2023/03/18 16:03:18;;;;;;;7.32;6.82;;;20.90;48.80;;;;;;4901726;29;20202;-71
2023/03/18 16:05:43;;;;;;;6.32;5.97;;;20.90;50.20;;;;;;4916075;29;20201;-68
2023/03/18 16:08:12;;;;;;;7.68;6.78;;;20.80;49.80;;;;;;4915800;29;20180;-71
2023/03/18 16:10:40;;;;;;;9.13;8.40;;;20.70;50.30;;;;;;4916524;29;20214;-71
2023/03/18 16:13:08;;;;;;;10.50;9.50;;;20.40;49.90;;;;;;4915853;29;20274;-71
2023/03/18 16:15:35;;;;;;;8.27;7.75;;;20.20;49.60;;;;;;4898770;29;20195;-71
2023/03/18 16:18:01;;;;;;;7.53;6.80;;;20.00;50.70;;;;;;4896850;29;20224;-71
2023/03/18 16:20:28;;;;;;;9.15;8.20;;;19.90;49.50;;;;;;4897604;29;20593;-70
2023/03/18 16:22:55;;;;;;;8.40;7.05;;;19.80;49.70;;;;;;4897875;29;20554;-73
2023/03/18 16:25:25;;;;;;;5.50;5.20;;;19.80;50.80;;;;;;4912181;29;20187;-72
2023/03/18 16:27:54;;;;;;;5.15;4.80;;;19.80;52.50;;;;;;4915753;29;20197;-73
2023/03/18 16:30:23;;;;;;;5.20;4.78;;;19.60;52.90;;;;;;4915316;29;20187;-70
2023/03/18 16:32:49;;;;;;;4.63;4.28;;;19.50;52.80;;;;;;4916653;29;20273;-72
2023/03/18 16:35:19;;;;;;;7.60;3.85;;;19.40;54.30;;;;;;4902576;29;20283;-72
2023/03/18 16:37:46;;;;;;;5.72;4.43;;;19.30;55.80;;;;;;4898278;29;20223;-72
2023/03/18 16:40:20;;;;;;;6.00;5.20;;;19.20;56.60;;;;;;4897251;29;20207;-72
2023/03/18 16:42:49;;;;;;;5.50;4.90;;;19.00;58.40;;;;;;4896032;29;20243;-72
2023/03/18 16:45:17;;;;;;;6.03;5.53;;;18.90;58.90;;;;;;4910104;29;20191;-72
2023/03/18 16:47:46;;;;;;;9.32;8.20;;;18.70;61.60;;;;;;4916277;29;20186;-72
2023/03/18 16:50:22;;;;;;;24.43;23.13;;;18.60;65.80;;;;;;4914732;29;20690;-72
2023/03/18 16:52:48;;;;;;;31.17;29.60;;;18.30;69.90;;;;;;4916417;29;20656;-71
2023/03/18 16:55:17;;;;;;;48.50;45.93;;;18.10;69.30;;;;;;4902618;29;20198;-72
2023/03/18 16:57:54;;;;;;;31.13;29.23;;;17.90;72.20;;;;;;4897290;29;20694;-73
2023/03/18 17:00:21;;;;;;;20.70;19.20;;;17.60;71.00;;;;;;4896867;29;20866;-71